sensor_id;sensor_type;location;lat;lon;timestamp;pressure;altitude;pressure_sealevel;temperature;humidity
69751;BME280;57335;52.288;6.056;2023-05-09T00:00:46;101768.63;;;15.07;100.00
69751;BME280;57335;52.288;6.056;2023-05-09T00:03:13;101763.19;;;15.02;100.00
69751;BME280;57335;52.288;6.056;2023-05-09T00:05:39;101771.50;;;14.99;100.00
69751;BME280;57335;52.288;6.056;2023-05-09T00:08:06;101766.50;;;14.91;100.00
69751;BME280;57335;52.288;6.056;2023-05-09T00:10:32;101763.69;;;14.86;100.00
69751;BME280;57335;52.288;6.056;2023-05-09T00:12:59;101769.16;;;14.84;100.00
69751;BME280;57335;52.288;6.056;2023-05-09T00:15:25;101762.25;;;14.83;100.00
69751;BME280;57335;52.288;6.056;2023-05-09T00:17:52;101751.78;;;14.70;100.00
69751;BME280;57335;52.288;6.056;2023-05-09T00:20:18;101765.75;;;14.77;100.00
69751;BME280;57335;52.288;6.056;2023-05-09T00:22:44;101760.72;;;14.75;100.00
69751;BME280;57335;52.288;6.056;2023-05-09T00:25:11;101762.34;;;14.70;100.00
69751;BME280;57335;52.288;6.056;2023-05-09T00:27:37;101760.31;;;14.72;100.00
69751;BME280;57335;52.288;6.056;2023-05-09T00:30:04;101760.50;;;14.70;100.00
69751;BME280;57335;52.288;6.056;2023-05-09T00:32:32;101757.91;;;14.64;100.00
69751;BME280;57335;52.288;6.056;2023-05-09T00:34:58;101769.47;;;14.69;100.00
69751;BME280;57335;52.288;6.056;2023-05-09T00:37:25;101744.53;;;14.59;100.00
69751;BME280;57335;52.288;6.056;2023-05-09T00:39:51;101744.94;;;14.55;100.00
69751;BME280;57335;52.288;6.056;2023-05-09T00:42:17;101739.06;;;14.53;100.00
69751;BME280;57335;52.288;6.056;2023-05-09T00:44:44;101749.16;;;14.63;100.00
69751;BME280;57335;52.288;6.056;2023-05-09T00:47:10;101742.50;;;14.61;100.00
69751;BME280;57335;52.288;6.056;2023-05-09T00:49:36;101726.66;;;14.61;100.00
69751;BME280;57335;52.288;6.056;2023-05-09T00:52:03;101729.91;;;14.63;100.00
69751;BME280;57335;52.288;6.056;2023-05-09T00:54:30;101727.88;;;14.65;100.00
69751;BME280;57335;52.288;6.056;2023-05-09T00:56:56;101724.44;;;14.64;100.00
69751;BME280;57335;52.288;6.056;2023-05-09T00:59:23;101713.28;;;14.62;100.00
69751;BME280;57335;52.288;6.056;2023-05-09T01:01:49;101726.03;;;14.65;100.00
69751;BME280;57335;52.288;6.056;2023-05-09T01:04:16;101720.16;;;14.63;100.00
69751;BME280;57335;52.288;6.056;2023-05-09T01:07:02;101720.75;;;14.65;100.00
69751;BME280;57335;52.288;6.056;2023-05-09T01:09:55;101709.59;;;14.63;100.00
69751;BME280;57335;52.288;6.056;2023-05-09T01:12:30;101699.03;;;14.63;100.00
69751;BME280;57335;52.288;6.056;2023-05-09T01:15:23;101692.56;;;14.59;100.00
69751;BME280;57335;52.288;6.056;2023-05-09T01:18:05;101697.47;;;14.55;100.00
69751;BME280;57335;52.288;6.056;2023-05-09T01:20:36;101704.53;;;14.55;100.00
69751;BME280;57335;52.288;6.056;2023-05-09T01:26:19;101698.13;;;14.44;100.00
69751;BME280;57335;52.288;6.056;2023-05-09T01:29:23;101694.69;;;14.44;100.00
69751;BME280;57335;52.288;6.056;2023-05-09T01:31:54;101686.38;;;14.40;100.00
69751;BME280;57335;52.288;6.056;2023-05-09T01:34:25;101690.19;;;14.44;100.00
69751;BME280;57335;52.288;6.056;2023-05-09T01:36:55;101667.50;;;14.36;100.00
69751;BME280;57335;52.288;6.056;2023-05-09T01:39:24;101668.50;;;14.42;100.00
69751;BME280;57335;52.288;6.056;2023-05-09T01:41:53;101673.97;;;14.47;100.00
69751;BME280;57335;52.288;6.056;2023-05-09T01:44:21;101674.97;;;14.46;100.00
69751;BME280;57335;52.288;6.056;2023-05-09T01:46:51;101677.63;;;14.46;100.00
69751;BME280;57335;52.288;6.056;2023-05-09T01:49:19;101664.66;;;14.38;100.00
69751;BME280;57335;52.288;6.056;2023-05-09T01:51:46;101661.84;;;14.33;100.00
69751;BME280;57335;52.288;6.056;2023-05-09T01:54:13;101660.25;;;14.32;100.00
69751;BME280;57335;52.288;6.056;2023-05-09T01:56:41;101668.16;;;14.32;100.00
69751;BME280;57335;52.288;6.056;2023-05-09T01:59:09;101661.88;;;14.26;100.00
69751;BME280;57335;52.288;6.056;2023-05-09T02:01:36;101673.44;;;14.32;100.00
69751;BME280;57335;52.288;6.056;2023-05-09T02:04:03;101668.16;;;14.32;100.00
69751;BME280;57335;52.288;6.056;2023-05-09T02:06:30;101679.69;;;14.38;100.00
69751;BME280;57335;52.288;6.056;2023-05-09T02:08:58;101675.63;;;14.35;100.00
69751;BME280;57335;52.288;6.056;2023-05-09T02:11:24;101680.50;;;14.38;100.00
69751;BME280;57335;52.288;6.056;2023-05-09T02:13:51;101670.94;;;14.44;100.00
69751;BME280;57335;52.288;6.056;2023-05-09T02:16:17;101669.69;;;14.46;100.00
69751;BME280;57335;52.288;6.056;2023-05-09T02:18:45;101657.56;;;14.45;100.00
69751;BME280;57335;52.288;6.056;2023-05-09T02:21:12;101641.53;;;14.40;100.00
69751;BME280;57335;52.288;6.056;2023-05-09T02:23:38;101660.94;;;14.52;100.00
69751;BME280;57335;52.288;6.056;2023-05-09T02:26:05;101648.41;;;14.48;100.00
69751;BME280;57335;52.288;6.056;2023-05-09T02:28:32;101658.31;;;14.52;100.00
69751;BME280;57335;52.288;6.056;2023-05-09T02:31:02;101654.06;;;14.51;100.00
69751;BME280;57335;52.288;6.056;2023-05-09T02:33:33;101647.53;;;14.54;100.00
69751;BME280;57335;52.288;6.056;2023-05-09T02:36:02;101654.84;;;14.59;100.00
69751;BME280;57335;52.288;6.056;2023-05-09T02:38:29;101642.47;;;14.52;100.00
69751;BME280;57335;52.288;6.056;2023-05-09T02:40:55;101641.47;;;14.53;100.00
69751;BME280;57335;52.288;6.056;2023-05-09T02:43:21;101636.59;;;14.50;100.00
69751;BME280;57335;52.288;6.056;2023-05-09T02:45:48;101625.66;;;14.47;100.00
69751;BME280;57335;52.288;6.056;2023-05-09T02:48:14;101620.00;;;14.43;100.00
69751;BME280;57335;52.288;6.056;2023-05-09T02:50:40;101622.63;;;14.43;100.00
69751;BME280;57335;52.288;6.056;2023-05-09T02:53:07;101617.41;;;14.36;100.00
69751;BME280;57335;52.288;6.056;2023-05-09T02:55:33;101616.59;;;14.36;100.00
69751;BME280;57335;52.288;6.056;2023-05-09T02:57:59;101612.72;;;14.39;100.00
69751;BME280;57335;52.288;6.056;2023-05-09T03:00:39;101611.94;;;14.38;100.00
69751;BME280;57335;52.288;6.056;2023-05-09T03:03:06;101601.59;;;14.36;100.00
69751;BME280;57335;52.288;6.056;2023-05-09T03:05:32;101601.97;;;14.40;100.00
69751;BME280;57335;52.288;6.056;2023-05-09T03:07:58;101604.63;;;14.40;100.00
69751;BME280;57335;52.288;6.056;2023-05-09T03:10:25;101606.22;;;14.41;100.00
69751;BME280;57335;52.288;6.056;2023-05-09T03:12:51;101610.47;;;14.42;100.00
69751;BME280;57335;52.288;6.056;2023-05-09T03:15:18;101611.69;;;14.46;100.00
69751;BME280;57335;52.288;6.056;2023-05-09T03:17:45;101603.81;;;14.40;100.00
69751;BME280;57335;52.288;6.056;2023-05-09T03:20:11;101613.50;;;14.46;100.00
69751;BME280;57335;52.288;6.056;2023-05-09T03:22:37;101598.53;;;14.40;100.00
69751;BME280;57335;52.288;6.056;2023-05-09T03:25:04;101592.63;;;14.44;100.00
69751;BME280;57335;52.288;6.056;2023-05-09T03:27:31;101581.88;;;14.39;100.00
69751;BME280;57335;52.288;6.056;2023-05-09T03:29:57;101582.06;;;14.44;100.00
69751;BME280;57335;52.288;6.056;2023-05-09T03:32:23;101588.34;;;14.43;100.00
69751;BME280;57335;52.288;6.056;2023-05-09T03:34:50;101593.22;;;14.46;100.00
69751;BME280;57335;52.288;6.056;2023-05-09T03:37:16;101588.31;;;14.50;100.00
69751;BME280;57335;52.288;6.056;2023-05-09T03:39:43;101582.66;;;14.46;100.00
69751;BME280;57335;52.288;6.056;2023-05-09T03:42:09;101581.06;;;14.45;100.00
69751;BME280;57335;52.288;6.056;2023-05-09T03:44:35;101582.66;;;14.46;100.00
69751;BME280;57335;52.288;6.056;2023-05-09T03:47:02;101567.25;;;14.43;100.00
69751;BME280;57335;52.288;6.056;2023-05-09T03:49:28;101588.13;;;14.51;100.00
69751;BME280;57335;52.288;6.056;2023-05-09T03:51:55;101574.09;;;14.51;100.00
69751;BME280;57335;52.288;6.056;2023-05-09T03:54:21;101559.72;;;14.47;100.00
69751;BME280;57335;52.288;6.056;2023-05-09T03:56:47;101579.75;;;14.54;100.00
69751;BME280;57335;52.288;6.056;2023-05-09T03:59:14;101579.75;;;14.61;100.00
69751;BME280;57335;52.288;6.056;2023-05-09T04:01:40;101578.94;;;14.61;100.00
69751;BME280;57335;52.288;6.056;2023-05-09T04:04:07;101562.34;;;14.53;100.00
69751;BME280;57335;52.288;6.056;2023-05-09T04:06:34;101574.06;;;14.64;100.00
69751;BME280;57335;52.288;6.056;2023-05-09T04:09:01;101572.00;;;14.66;100.00
69751;BME280;57335;52.288;6.056;2023-05-09T04:11:27;101577.66;;;14.70;100.00
69751;BME280;57335;52.288;6.056;2023-05-09T04:13:54;101567.53;;;14.67;100.00
69751;BME280;57335;52.288;6.056;2023-05-09T04:16:20;101570.13;;;14.73;100.00
69751;BME280;57335;52.288;6.056;2023-05-09T04:18:47;101562.63;;;14.70;100.00
69751;BME280;57335;52.288;6.056;2023-05-09T04:21:13;101559.78;;;14.72;100.00
69751;BME280;57335;52.288;6.056;2023-05-09T04:23:39;101544.38;;;14.69;100.00
69751;BME280;57335;52.288;6.056;2023-05-09T04:26:06;101544.38;;;14.69;100.00
69751;BME280;57335;52.288;6.056;2023-05-09T04:28:32;101543.78;;;14.67;100.00
69751;BME280;57335;52.288;6.056;2023-05-09T04:30:58;101544.16;;;14.70;100.00
69751;BME280;57335;52.288;6.056;2023-05-09T04:33:25;101535.06;;;14.66;100.00
69751;BME280;57335;52.288;6.056;2023-05-09T04:35:51;101549.38;;;14.77;100.00
69751;BME280;57335;52.288;6.056;2023-05-09T04:38:19;101544.53;;;14.74;100.00
69751;BME280;57335;52.288;6.056;2023-05-09T04:40:45;101544.94;;;14.78;100.00
69751;BME280;57335;52.288;6.056;2023-05-09T04:43:11;101546.53;;;14.79;100.00
69751;BME280;57335;52.288;6.056;2023-05-09T04:45:38;101533.41;;;14.72;100.00
69751;BME280;57335;52.288;6.056;2023-05-09T04:48:04;101529.97;;;14.71;100.00
69751;BME280;57335;52.288;6.056;2023-05-09T04:50:31;101544.16;;;14.70;100.00
69751;BME280;57335;52.288;6.056;2023-05-09T04:52:57;101539.94;;;14.69;100.00
69751;BME280;57335;52.288;6.056;2023-05-09T04:55:23;101542.56;;;14.69;100.00
69751;BME280;57335;52.288;6.056;2023-05-09T04:57:50;101530.00;;;14.65;100.00
69751;BME280;57335;52.288;6.056;2023-05-09T05:00:16;101529.19;;;14.64;100.00
69751;BME280;57335;52.288;6.056;2023-05-09T05:02:43;101531.41;;;14.67;100.00
69751;BME280;57335;52.288;6.056;2023-05-09T05:05:09;101516.66;;;14.60;100.00
69751;BME280;57335;52.288;6.056;2023-05-09T05:07:38;101498.66;;;14.50;100.00
69751;BME280;57335;52.288;6.056;2023-05-09T05:10:05;101526.34;;;14.66;100.00
69751;BME280;57335;52.288;6.056;2023-05-09T05:12:32;101521.69;;;14.61;100.00
69751;BME280;57335;52.288;6.056;2023-05-09T05:14:58;101525.31;;;14.67;100.00
69751;BME280;57335;52.288;6.056;2023-05-09T05:17:25;101523.25;;;14.69;100.00
69751;BME280;57335;52.288;6.056;2023-05-09T05:19:51;101516.59;;;14.66;100.00
69751;BME280;57335;52.288;6.056;2023-05-09T05:22:17;101514.13;;;14.71;100.00
69751;BME280;57335;52.288;6.056;2023-05-09T05:24:44;101511.03;;;14.74;100.00
69751;BME280;57335;52.288;6.056;2023-05-09T05:27:10;101506.56;;;14.75;100.00
69751;BME280;57335;52.288;6.056;2023-05-09T05:29:37;101498.50;;;14.70;100.00
69751;BME280;57335;52.288;6.056;2023-05-09T05:32:03;101516.25;;;14.81;100.00
69751;BME280;57335;52.288;6.056;2023-05-09T05:34:29;101503.66;;;14.83;100.00
69751;BME280;57335;52.288;6.056;2023-05-09T05:36:56;101496.56;;;14.84;100.00
69751;BME280;57335;52.288;6.056;2023-05-09T05:39:22;101490.84;;;14.87;100.00
69751;BME280;57335;52.288;6.056;2023-05-09T05:41:48;101487.31;;;14.93;100.00
69751;BME280;57335;52.288;6.056;2023-05-09T05:44:15;101484.63;;;15.00;100.00
69751;BME280;57335;52.288;6.056;2023-05-09T05:46:41;101499.94;;;15.09;100.00
69751;BME280;57335;52.288;6.056;2023-05-09T05:49:07;101490.03;;;15.05;100.00
69751;BME280;57335;52.288;6.056;2023-05-09T05:51:34;101491.97;;;15.16;100.00
69751;BME280;57335;52.288;6.056;2023-05-09T05:54:00;101490.69;;;15.19;100.00
69751;BME280;57335;52.288;6.056;2023-05-09T05:56:27;101481.53;;;15.21;100.00
69751;BME280;57335;52.288;6.056;2023-05-09T05:58:53;101473.16;;;15.24;100.00
69751;BME280;57335;52.288;6.056;2023-05-09T06:01:19;101471.91;;;15.27;100.00
69751;BME280;57335;52.288;6.056;2023-05-09T06:03:46;101477.34;;;15.32;100.00
69751;BME280;57335;52.288;6.056;2023-05-09T06:06:12;101464.16;;;15.32;100.00
69751;BME280;57335;52.288;6.056;2023-05-09T06:08:38;101482.59;;;15.50;100.00
69751;BME280;57335;52.288;6.056;2023-05-09T06:11:05;101472.41;;;15.54;100.00
69751;BME280;57335;52.288;6.056;2023-05-09T06:13:31;101474.72;;;15.62;100.00
69751;BME280;57335;52.288;6.056;2023-05-09T06:15:57;101461.63;;;15.67;100.00
69751;BME280;57335;52.288;6.056;2023-05-09T06:18:40;101453.00;;;15.79;100.00
69751;BME280;57335;52.288;6.056;2023-05-09T06:21:07;101440.34;;;15.81;100.00
69751;BME280;57335;52.288;6.056;2023-05-09T06:23:33;101452.22;;;15.90;100.00
69751;BME280;57335;52.288;6.056;2023-05-09T06:25:59;101451.31;;;15.96;100.00
69751;BME280;57335;52.288;6.056;2023-05-09T06:28:26;101444.75;;;15.99;100.00
69751;BME280;57335;52.288;6.056;2023-05-09T06:30:52;101442.56;;;15.95;100.00
69751;BME280;57335;52.288;6.056;2023-05-09T06:33:19;101442.13;;;15.99;100.00
69751;BME280;57335;52.288;6.056;2023-05-09T06:35:45;101450.41;;;16.02;100.00
69751;BME280;57335;52.288;6.056;2023-05-09T06:38:11;101440.16;;;15.94;100.00
69751;BME280;57335;52.288;6.056;2023-05-09T06:40:38;101445.13;;;16.02;100.00
69751;BME280;57335;52.288;6.056;2023-05-09T06:43:04;101433.97;;;16.00;100.00
69751;BME280;57335;52.288;6.056;2023-05-09T06:45:30;101427.53;;;15.96;100.00
69751;BME280;57335;52.288;6.056;2023-05-09T06:47:57;101438.78;;;16.03;100.00
69751;BME280;57335;52.288;6.056;2023-05-09T06:50:23;101414.16;;;15.91;100.00
69751;BME280;57335;52.288;6.056;2023-05-09T06:52:50;101428.09;;;15.98;100.00
69751;BME280;57335;52.288;6.056;2023-05-09T06:55:16;101409.38;;;16.00;100.00
69751;BME280;57335;52.288;6.056;2023-05-09T06:57:43;101412.91;;;16.05;100.00
69751;BME280;57335;52.288;6.056;2023-05-09T07:00:09;101415.50;;;16.24;100.00
69751;BME280;57335;52.288;6.056;2023-05-09T07:02:36;101402.59;;;16.39;100.00
69751;BME280;57335;52.288;6.056;2023-05-09T07:05:02;101404.50;;;16.67;100.00
69751;BME280;57335;52.288;6.056;2023-05-09T07:07:29;101396.94;;;16.83;100.00
69751;BME280;57335;52.288;6.056;2023-05-09T07:09:55;101384.84;;;16.87;100.00
69751;BME280;57335;52.288;6.056;2023-05-09T07:12:36;101384.88;;;17.04;100.00
69751;BME280;57335;52.288;6.056;2023-05-09T07:15:02;101387.97;;;17.12;100.00
69751;BME280;57335;52.288;6.056;2023-05-09T07:17:29;101380.56;;;17.26;100.00
69751;BME280;57335;52.288;6.056;2023-05-09T07:19:55;101392.13;;;17.37;99.05
69751;BME280;57335;52.288;6.056;2023-05-09T07:22:21;101371.16;;;17.35;99.09
69751;BME280;57335;52.288;6.056;2023-05-09T07:24:48;101380.34;;;17.45;98.56
69751;BME280;57335;52.288;6.056;2023-05-09T07:27:14;101374.88;;;17.51;98.58
69751;BME280;57335;52.288;6.056;2023-05-09T07:29:41;101366.03;;;17.46;96.51
69751;BME280;57335;52.288;6.056;2023-05-09T07:32:07;101386.38;;;17.57;96.50
69751;BME280;57335;52.288;6.056;2023-05-09T07:34:34;101379.66;;;17.66;95.93
69751;BME280;57335;52.288;6.056;2023-05-09T07:37:01;101383.91;;;17.67;92.86
69751;BME280;57335;52.288;6.056;2023-05-09T07:39:27;101369.06;;;17.66;93.34
69751;BME280;57335;52.288;6.056;2023-05-09T07:41:54;101362.94;;;17.66;93.26
69751;BME280;57335;52.288;6.056;2023-05-09T07:44:20;101367.19;;;17.67;95.48
69751;BME280;57335;52.288;6.056;2023-05-09T07:46:47;101365.44;;;17.72;94.81
69751;BME280;57335;52.288;6.056;2023-05-09T07:49:13;101358.19;;;17.68;92.01
69751;BME280;57335;52.288;6.056;2023-05-09T07:51:39;101354.34;;;17.59;92.69
69751;BME280;57335;52.288;6.056;2023-05-09T07:54:06;101355.72;;;17.61;92.29
69751;BME280;57335;52.288;6.056;2023-05-09T07:56:32;101361.25;;;17.60;90.89
69751;BME280;57335;52.288;6.056;2023-05-09T07:58:58;101350.66;;;17.60;91.77
69751;BME280;57335;52.288;6.056;2023-05-09T08:01:25;101338.69;;;17.57;91.67
69751;BME280;57335;52.288;6.056;2023-05-09T08:03:51;101338.69;;;17.57;92.00
69751;BME280;57335;52.288;6.056;2023-05-09T08:06:18;101347.44;;;17.58;90.86
69751;BME280;57335;52.288;6.056;2023-05-09T08:08:44;101341.03;;;17.70;91.68
69751;BME280;57335;52.288;6.056;2023-05-09T08:11:10;101333.31;;;17.69;89.99
69751;BME280;57335;52.288;6.056;2023-05-09T08:13:37;101327.59;;;17.77;89.82
69751;BME280;57335;52.288;6.056;2023-05-09T08:16:03;101313.59;;;17.82;90.98
69751;BME280;57335;52.288;6.056;2023-05-09T08:18:30;101316.03;;;18.00;92.33
69751;BME280;57335;52.288;6.056;2023-05-09T08:20:56;101309.66;;;18.18;88.83
69751;BME280;57335;52.288;6.056;2023-05-09T08:23:23;101299.34;;;18.22;90.81
69751;BME280;57335;52.288;6.056;2023-05-09T08:25:52;101304.41;;;18.45;89.36
69751;BME280;57335;52.288;6.056;2023-05-09T08:28:19;101308.84;;;18.62;87.46
69751;BME280;57335;52.288;6.056;2023-05-09T08:30:46;101303.47;;;18.79;87.48
69751;BME280;57335;52.288;6.056;2023-05-09T08:33:13;101291.47;;;18.76;85.89
69751;BME280;57335;52.288;6.056;2023-05-09T08:35:39;101286.56;;;18.85;89.59
69751;BME280;57335;52.288;6.056;2023-05-09T08:38:05;101285.13;;;18.77;86.04
69751;BME280;57335;52.288;6.056;2023-05-09T08:40:35;101294.69;;;18.78;85.49
69751;BME280;57335;52.288;6.056;2023-05-09T08:43:05;101288.72;;;18.66;86.34
69751;BME280;57335;52.288;6.056;2023-05-09T08:45:34;101282.31;;;18.62;86.47
69751;BME280;57335;52.288;6.056;2023-05-09T08:48:04;101299.28;;;18.61;85.49
69751;BME280;57335;52.288;6.056;2023-05-09T08:50:31;101285.78;;;18.62;87.58
69751;BME280;57335;52.288;6.056;2023-05-09T08:52:58;101298.16;;;18.79;88.21
69751;BME280;57335;52.288;6.056;2023-05-09T08:55:24;101285.25;;;18.87;87.83
69751;BME280;57335;52.288;6.056;2023-05-09T08:57:51;101285.72;;;19.06;84.21
69751;BME280;57335;52.288;6.056;2023-05-09T09:00:18;101283.97;;;19.22;86.52
69751;BME280;57335;52.288;6.056;2023-05-09T09:02:46;101277.22;;;19.37;83.31
69751;BME280;57335;52.288;6.056;2023-05-09T09:05:13;101291.63;;;19.46;84.20
69751;BME280;57335;52.288;6.056;2023-05-09T09:07:59;101280.50;;;19.54;83.84
69751;BME280;57335;52.288;6.056;2023-05-09T09:10:28;101277.31;;;19.52;83.95
69751;BME280;57335;52.288;6.056;2023-05-09T09:12:58;101264.00;;;19.47;82.95
69751;BME280;57335;52.288;6.056;2023-05-09T09:15:27;101263.50;;;19.55;84.05
69751;BME280;57335;52.288;6.056;2023-05-09T09:17:58;101255.50;;;19.50;81.78
69751;BME280;57335;52.288;6.056;2023-05-09T09:20:26;101252.09;;;19.55;82.39
69751;BME280;57335;52.288;6.056;2023-05-09T09:22:58;101259.41;;;19.42;81.59
69751;BME280;57335;52.288;6.056;2023-05-09T09:25:25;101254.00;;;19.27;82.91
69751;BME280;57335;52.288;6.056;2023-05-09T09:27:51;101253.88;;;19.11;84.97
69751;BME280;57335;52.288;6.056;2023-05-09T09:30:18;101243.09;;;18.96;85.12
69751;BME280;57335;52.288;6.056;2023-05-09T09:32:44;101237.53;;;18.98;85.91
69751;BME280;57335;52.288;6.056;2023-05-09T09:35:11;101255.34;;;18.97;86.68
69751;BME280;57335;52.288;6.056;2023-05-09T09:37:39;101252.34;;;18.88;87.42
69751;BME280;57335;52.288;6.056;2023-05-09T09:40:06;101240.31;;;18.81;88.39
69751;BME280;57335;52.288;6.056;2023-05-09T09:42:40;101236.06;;;18.80;87.91
69751;BME280;57335;52.288;6.056;2023-05-09T09:45:11;101239.81;;;18.84;88.24
69751;BME280;57335;52.288;6.056;2023-05-09T09:47:38;101232.13;;;18.82;86.24
69751;BME280;57335;52.288;6.056;2023-05-09T09:50:10;101228.81;;;18.75;85.61
69751;BME280;57335;52.288;6.056;2023-05-09T09:52:50;101245.88;;;18.79;86.58
69751;BME280;57335;52.288;6.056;2023-05-09T09:55:17;101233.63;;;18.78;87.93
69751;BME280;57335;52.288;6.056;2023-05-09T09:57:44;101240.31;;;18.81;87.54
69751;BME280;57335;52.288;6.056;2023-05-09T10:00:23;101226.47;;;18.79;87.61
69751;BME280;57335;52.288;6.056;2023-05-09T10:02:50;101244.31;;;18.83;88.53
69751;BME280;57335;52.288;6.056;2023-05-09T10:05:22;101225.63;;;18.73;86.51
69751;BME280;57335;52.288;6.056;2023-05-09T10:07:55;101232.78;;;18.72;86.19
69751;BME280;57335;52.288;6.056;2023-05-09T10:10:25;101216.38;;;18.53;85.60
69751;BME280;57335;52.288;6.056;2023-05-09T10:12:54;101227.66;;;18.66;87.59
69751;BME280;57335;52.288;6.056;2023-05-09T10:15:21;101231.56;;;18.58;86.25
69751;BME280;57335;52.288;6.056;2023-05-09T10:17:53;101238.16;;;18.56;87.09
69751;BME280;57335;52.288;6.056;2023-05-09T10:20:20;101228.31;;;18.51;87.85
69751;BME280;57335;52.288;6.056;2023-05-09T10:22:47;101224.25;;;18.43;88.19
69751;BME280;57335;52.288;6.056;2023-05-09T10:25:19;101219.50;;;18.45;89.62
69751;BME280;57335;52.288;6.056;2023-05-09T10:27:47;101234.88;;;18.43;90.37
69751;BME280;57335;52.288;6.056;2023-05-09T10:30:21;101225.03;;;18.44;90.90
69751;BME280;57335;52.288;6.056;2023-05-09T10:33:02;101222.03;;;18.35;90.41
69751;BME280;57335;52.288;6.056;2023-05-09T10:35:35;101214.63;;;18.37;90.33
69751;BME280;57335;52.288;6.056;2023-05-09T10:38:02;101221.09;;;18.46;91.06
69751;BME280;57335;52.288;6.056;2023-05-09T10:40:30;101196.94;;;18.48;90.22
69751;BME280;57335;52.288;6.056;2023-05-09T10:42:57;101204.31;;;18.68;89.78
69751;BME280;57335;52.288;6.056;2023-05-09T10:45:23;101205.97;;;18.74;89.39
69751;BME280;57335;52.288;6.056;2023-05-09T10:47:51;101204.97;;;18.80;88.51
69751;BME280;57335;52.288;6.056;2023-05-09T10:50:18;101192.56;;;18.86;88.21
69751;BME280;57335;52.288;6.056;2023-05-09T10:53:04;101201.44;;;18.97;86.33
69751;BME280;57335;52.288;6.056;2023-05-09T10:55:48;101193.72;;;18.95;86.38
69751;BME280;57335;52.288;6.056;2023-05-09T10:58:28;101185.03;;;19.05;86.91
69751;BME280;57335;52.288;6.056;2023-05-09T11:00:56;101183.47;;;19.14;86.28
69751;BME280;57335;52.288;6.056;2023-05-09T11:03:24;101178.72;;;19.16;85.40
69751;BME280;57335;52.288;6.056;2023-05-09T11:05:54;101171.84;;;19.20;86.05
69751;BME280;57335;52.288;6.056;2023-05-09T11:08:28;101173.22;;;19.28;85.58
69751;BME280;57335;52.288;6.056;2023-05-09T11:10:56;101172.41;;;19.27;85.10
69751;BME280;57335;52.288;6.056;2023-05-09T11:13:24;101166.56;;;19.25;84.95
69751;BME280;57335;52.288;6.056;2023-05-09T11:18:27;101160.75;;;19.33;85.41
69751;BME280;57335;52.288;6.056;2023-05-09T11:20:54;101166.13;;;19.44;85.62
69751;BME280;57335;52.288;6.056;2023-05-09T11:23:25;101169.88;;;19.48;85.32
69751;BME280;57335;52.288;6.056;2023-05-09T11:25:52;101150.44;;;19.42;83.88
69751;BME280;57335;52.288;6.056;2023-05-09T11:28:30;101162.69;;;19.43;84.58
69751;BME280;57335;52.288;6.056;2023-05-09T11:31:15;101156.56;;;19.43;85.33
69751;BME280;57335;52.288;6.056;2023-05-09T11:33:43;101150.13;;;19.33;85.23
69751;BME280;57335;52.288;6.056;2023-05-09T11:36:29;101153.88;;;19.32;87.28
69751;BME280;57335;52.288;6.056;2023-05-09T11:39:07;101150.31;;;19.22;88.10
69751;BME280;57335;52.288;6.056;2023-05-09T11:41:45;101137.50;;;19.08;88.27
69751;BME280;57335;52.288;6.056;2023-05-09T11:44:15;101147.59;;;19.11;89.37
69751;BME280;57335;52.288;6.056;2023-05-09T11:46:42;101132.91;;;18.99;89.92
69751;BME280;57335;52.288;6.056;2023-05-09T11:49:09;101136.06;;;18.96;89.71
69751;BME280;57335;52.288;6.056;2023-05-09T11:51:38;101141.63;;;18.94;90.76
69751;BME280;57335;52.288;6.056;2023-05-09T11:54:05;101145.59;;;18.86;91.30
69751;BME280;57335;52.288;6.056;2023-05-09T11:56:33;101133.47;;;18.73;92.19
69751;BME280;57335;52.288;6.056;2023-05-09T11:59:00;101133.19;;;18.70;92.70
69751;BME280;57335;52.288;6.056;2023-05-09T12:01:28;101139.03;;;18.72;92.83
69751;BME280;57335;52.288;6.056;2023-05-09T12:03:56;101139.78;;;18.62;93.07
69751;BME280;57335;52.288;6.056;2023-05-09T12:06:24;101124.25;;;18.49;93.58
69751;BME280;57335;52.288;6.056;2023-05-09T12:08:51;101127.06;;;18.37;96.01
69751;BME280;57335;52.288;6.056;2023-05-09T12:11:19;101131.28;;;18.33;96.21
69751;BME280;57335;52.288;6.056;2023-05-09T12:13:47;101135.47;;;18.29;95.03
69751;BME280;57335;52.288;6.056;2023-05-09T12:16:17;101133.28;;;18.21;96.00
69751;BME280;57335;52.288;6.056;2023-05-09T12:18:49;101111.88;;;18.05;96.76
69751;BME280;57335;52.288;6.056;2023-05-09T12:21:19;101127.31;;;18.08;98.53
69751;BME280;57335;52.288;6.056;2023-05-09T12:23:46;101119.78;;;18.00;96.88
69751;BME280;57335;52.288;6.056;2023-05-09T12:26:16;101122.38;;;17.95;97.32
69751;BME280;57335;52.288;6.056;2023-05-09T12:28:42;101128.44;;;17.90;97.58
69751;BME280;57335;52.288;6.056;2023-05-09T12:31:09;101113.66;;;17.78;96.52
69751;BME280;57335;52.288;6.056;2023-05-09T12:33:37;101113.50;;;17.62;97.00
69751;BME280;57335;52.288;6.056;2023-05-09T12:36:07;101111.44;;;17.47;98.07
69751;BME280;57335;52.288;6.056;2023-05-09T12:38:33;101098.84;;;17.38;98.42
69751;BME280;57335;52.288;6.056;2023-05-09T12:43:33;101105.63;;;17.28;98.14
69751;BME280;57335;52.288;6.056;2023-05-09T12:46:01;101110.06;;;17.23;99.19
69751;BME280;57335;52.288;6.056;2023-05-09T12:48:29;101094.16;;;17.06;99.13
69751;BME280;57335;52.288;6.056;2023-05-09T12:50:55;101101.97;;;16.95;100.00
69751;BME280;57335;52.288;6.056;2023-05-09T12:53:25;101104.06;;;16.93;99.70
69751;BME280;57335;52.288;6.056;2023-05-09T12:56:00;101092.84;;;16.86;99.46
69751;BME280;57335;52.288;6.056;2023-05-09T12:58:31;101094.44;;;16.87;99.50